aviador You're here:

KAZO Decoded Metar

KALAMAZOO in MI, USA
Report Time2017-08-19 13:53:00
UTC Time2017-08-19 14:55:14
Flight Rules vfr VFR
Wind360° at 11 kt
W.Decomp.*RWY 35: 10.7 kt HW 2.5 kt RCW
RWY 05: 7.5 kt HW 8 kt LCW
RWY 09: 0.6 kt HW 11 kt LCW
Visibility9999 m
Phenomena:N/A
Clouds:N/A
Expected CloudBase > 2,800 ft AGL from Temp-Dew spread
CeilingNone
Temp22°C (ISA +9)
Dew Point15°C (65% RH)
AAT19.7°C
QNH1014 hPa
Density Alt2,110 ft
Elevation892 ft
Report Wrong Elevation
Raw Report
METAR KAZO 191353Z 36011KT 10SM CLR 22/15 A2994 RMK AO2 SLP135 T02220150=

Extra information for KAZO:More info

Metar Taf Metar & Taf Last 4 Metars F.Rules Stats Wind Profile Meteogram Temp Stats Airport Information Weather charts Add Link Nearby VenuesMetar ALERT Operation Metar Decoded Social comments

AIRNAV info for KAZO